sensor_id;sensor_type;location;lat;lon;timestamp;temperature;humidity
21282;DHT22;10800;53.096;18.328;2023-04-25T00:01:54;12.10;99.90
21282;DHT22;10800;53.096;18.328;2023-04-25T00:07:09;12.10;99.90
21282;DHT22;10800;53.096;18.328;2023-04-25T00:12:28;12.10;99.90
21282;DHT22;10800;53.096;18.328;2023-04-25T00:18:22;12.10;99.90
21282;DHT22;10800;53.096;18.328;2023-04-25T00:23:57;12.10;99.90
21282;DHT22;10800;53.096;18.328;2023-04-25T00:29:35;12.10;99.90
21282;DHT22;10800;53.096;18.328;2023-04-25T00:34:53;12.10;99.90
21282;DHT22;10800;53.096;18.328;2023-04-25T00:40:15;12.00;99.90
21282;DHT22;10800;53.096;18.328;2023-04-25T00:45:46;11.90;99.90
21282;DHT22;10800;53.096;18.328;2023-04-25T00:51:04;11.90;99.90
21282;DHT22;10800;53.096;18.328;2023-04-25T00:56:39;11.90;99.90
21282;DHT22;10800;53.096;18.328;2023-04-25T01:02:06;11.80;99.90
21282;DHT22;10800;53.096;18.328;2023-04-25T01:07:17;11.80;99.90
21282;DHT22;10800;53.096;18.328;2023-04-25T01:12:47;11.70;99.90
21282;DHT22;10800;53.096;18.328;2023-04-25T01:18:22;11.60;99.90
21282;DHT22;10800;53.096;18.328;2023-04-25T01:23:53;11.50;99.90
21282;DHT22;10800;53.096;18.328;2023-04-25T01:29:08;11.40;99.90
21282;DHT22;10800;53.096;18.328;2023-04-25T01:34:27;11.30;99.90
21282;DHT22;10800;53.096;18.328;2023-04-25T01:39:42;11.30;99.90
21282;DHT22;10800;53.096;18.328;2023-04-25T01:45:17;11.20;99.90
21282;DHT22;10800;53.096;18.328;2023-04-25T01:50:46;11.20;99.90
21282;DHT22;10800;53.096;18.328;2023-04-25T01:56:13;11.10;99.90
21282;DHT22;10800;53.096;18.328;2023-04-25T02:01:31;11.00;99.90
21282;DHT22;10800;53.096;18.328;2023-04-25T02:06:44;10.90;99.90
21282;DHT22;10800;53.096;18.328;2023-04-25T02:12:29;10.80;99.90
21282;DHT22;10800;53.096;18.328;2023-04-25T02:18:05;10.70;99.90
21282;DHT22;10800;53.096;18.328;2023-04-25T02:23:34;10.60;99.90
21282;DHT22;10800;53.096;18.328;2023-04-25T02:28:57;10.60;99.90
21282;DHT22;10800;53.096;18.328;2023-04-25T02:34:35;10.50;99.90
21282;DHT22;10800;53.096;18.328;2023-04-25T02:39:44;10.40;99.90
21282;DHT22;10800;53.096;18.328;2023-04-25T02:45:12;10.40;99.90
21282;DHT22;10800;53.096;18.328;2023-04-25T02:50:29;10.30;99.90
21282;DHT22;10800;53.096;18.328;2023-04-25T02:56:13;10.20;99.90
21282;DHT22;10800;53.096;18.328;2023-04-25T03:01:27;10.10;99.90
21282;DHT22;10800;53.096;18.328;2023-04-25T03:06:44;10.00;99.90
21282;DHT22;10800;53.096;18.328;2023-04-25T03:12:08;10.00;99.90
21282;DHT22;10800;53.096;18.328;2023-04-25T03:17:39;9.90;99.90
21282;DHT22;10800;53.096;18.328;2023-04-25T03:23:12;9.80;99.90
21282;DHT22;10800;53.096;18.328;2023-04-25T03:28:38;9.70;99.90
21282;DHT22;10800;53.096;18.328;2023-04-25T03:34:09;9.70;99.90
21282;DHT22;10800;53.096;18.328;2023-04-25T03:39:56;9.70;99.90
21282;DHT22;10800;53.096;18.328;2023-04-25T03:45:28;9.60;99.90
21282;DHT22;10800;53.096;18.328;2023-04-25T03:51:02;9.50;99.90
21282;DHT22;10800;53.096;18.328;2023-04-25T03:56:36;9.40;99.90
21282;DHT22;10800;53.096;18.328;2023-04-25T04:02:08;9.40;99.90
21282;DHT22;10800;53.096;18.328;2023-04-25T04:07:24;9.30;99.90
21282;DHT22;10800;53.096;18.328;2023-04-25T04:12:29;9.30;99.90
21282;DHT22;10800;53.096;18.328;2023-04-25T04:17:34;9.30;99.90
21282;DHT22;10800;53.096;18.328;2023-04-25T04:22:57;9.30;99.90
21282;DHT22;10800;53.096;18.328;2023-04-25T04:28:07;9.30;99.90
21282;DHT22;10800;53.096;18.328;2023-04-25T04:33:59;9.20;99.90
21282;DHT22;10800;53.096;18.328;2023-04-25T04:39:11;9.30;99.90
21282;DHT22;10800;53.096;18.328;2023-04-25T04:45:00;9.30;99.90
21282;DHT22;10800;53.096;18.328;2023-04-25T04:50:22;9.40;99.90
21282;DHT22;10800;53.096;18.328;2023-04-25T04:55:31;9.50;99.90
21282;DHT22;10800;53.096;18.328;2023-04-25T05:01:20;9.60;99.90
21282;DHT22;10800;53.096;18.328;2023-04-25T05:07:11;9.50;99.90
21282;DHT22;10800;53.096;18.328;2023-04-25T05:12:18;9.50;99.90
21282;DHT22;10800;53.096;18.328;2023-04-25T05:17:36;9.50;99.90
21282;DHT22;10800;53.096;18.328;2023-04-25T05:22:45;9.60;99.90
21282;DHT22;10800;53.096;18.328;2023-04-25T05:28:17;9.80;99.90
21282;DHT22;10800;53.096;18.328;2023-04-25T05:33:37;9.80;99.90
21282;DHT22;10800;53.096;18.328;2023-04-25T05:38:48;9.80;99.90
21282;DHT22;10800;53.096;18.328;2023-04-25T05:44:22;9.80;99.90
21282;DHT22;10800;53.096;18.328;2023-04-25T05:49:37;9.90;99.90
21282;DHT22;10800;53.096;18.328;2023-04-25T05:55:10;10.10;99.90
21282;DHT22;10800;53.096;18.328;2023-04-25T06:00:27;10.30;99.90
21282;DHT22;10800;53.096;18.328;2023-04-25T06:05:42;10.40;99.90
21282;DHT22;10800;53.096;18.328;2023-04-25T06:11:07;10.50;99.90
21282;DHT22;10800;53.096;18.328;2023-04-25T06:16:24;10.70;99.90
21282;DHT22;10800;53.096;18.328;2023-04-25T06:22:11;10.70;99.90
21282;DHT22;10800;53.096;18.328;2023-04-25T06:27:43;11.10;99.90
21282;DHT22;10800;53.096;18.328;2023-04-25T06:33:04;11.50;99.90
21282;DHT22;10800;53.096;18.328;2023-04-25T06:38:18;12.10;99.90
21282;DHT22;10800;53.096;18.328;2023-04-25T06:43:27;11.90;99.90
21282;DHT22;10800;53.096;18.328;2023-04-25T06:48:42;11.70;99.90
21282;DHT22;10800;53.096;18.328;2023-04-25T06:53:55;11.60;99.90
21282;DHT22;10800;53.096;18.328;2023-04-25T06:59:13;11.80;99.90
21282;DHT22;10800;53.096;18.328;2023-04-25T07:04:25;12.00;99.90
21282;DHT22;10800;53.096;18.328;2023-04-25T07:09:40;12.20;99.90
21282;DHT22;10800;53.096;18.328;2023-04-25T07:14:51;12.60;99.90
21282;DHT22;10800;53.096;18.328;2023-04-25T07:20:08;12.80;99.90
21282;DHT22;10800;53.096;18.328;2023-04-25T07:25:20;13.40;99.90
21282;DHT22;10800;53.096;18.328;2023-04-25T07:30:34;13.80;99.90
21282;DHT22;10800;53.096;18.328;2023-04-25T07:35:41;13.40;99.90
21282;DHT22;10800;53.096;18.328;2023-04-25T07:40:50;13.20;99.90
21282;DHT22;10800;53.096;18.328;2023-04-25T07:46:04;13.30;99.90
21282;DHT22;10800;53.096;18.328;2023-04-25T07:51:18;13.90;99.40
21282;DHT22;10800;53.096;18.328;2023-04-25T07:56:24;14.80;95.00
21282;DHT22;10800;53.096;18.328;2023-04-25T08:01:34;14.90;94.90
21282;DHT22;10800;53.096;18.328;2023-04-25T08:06:44;15.00;92.80
21282;DHT22;10800;53.096;18.328;2023-04-25T08:11:54;16.20;93.30
21282;DHT22;10800;53.096;18.328;2023-04-25T08:17:04;16.00;90.40
21282;DHT22;10800;53.096;18.328;2023-04-25T08:22:10;15.10;91.30
21282;DHT22;10800;53.096;18.328;2023-04-25T08:27:25;15.20;92.10
21282;DHT22;10800;53.096;18.328;2023-04-25T08:32:46;15.50;88.70
21282;DHT22;10800;53.096;18.328;2023-04-25T08:37:53;15.00;90.80
21282;DHT22;10800;53.096;18.328;2023-04-25T08:43:01;14.60;91.60
21282;DHT22;10800;53.096;18.328;2023-04-25T08:48:12;14.30;90.90
21282;DHT22;10800;53.096;18.328;2023-04-25T08:53:32;14.10;91.40
21282;DHT22;10800;53.096;18.328;2023-04-25T08:58:37;13.90;92.00
21282;DHT22;10800;53.096;18.328;2023-04-25T09:03:47;13.70;92.30
21282;DHT22;10800;53.096;18.328;2023-04-25T09:09:05;13.50;92.70
21282;DHT22;10800;53.096;18.328;2023-04-25T09:14:20;13.70;93.40
21282;DHT22;10800;53.096;18.328;2023-04-25T09:19:33;13.80;92.90
21282;DHT22;10800;53.096;18.328;2023-04-25T09:24:53;14.00;92.90
21282;DHT22;10800;53.096;18.328;2023-04-25T09:29:59;14.20;92.00
21282;DHT22;10800;53.096;18.328;2023-04-25T09:35:09;14.10;92.30
21282;DHT22;10800;53.096;18.328;2023-04-25T09:40:18;14.20;91.00
21282;DHT22;10800;53.096;18.328;2023-04-25T09:45:25;14.40;90.90
21282;DHT22;10800;53.096;18.328;2023-04-25T09:50:33;14.30;90.20
21282;DHT22;10800;53.096;18.328;2023-04-25T09:55:39;14.20;91.20
21282;DHT22;10800;53.096;18.328;2023-04-25T10:00:48;14.00;91.70
21282;DHT22;10800;53.096;18.328;2023-04-25T10:05:56;14.00;90.50
21282;DHT22;10800;53.096;18.328;2023-04-25T10:11:05;14.00;91.10
21282;DHT22;10800;53.096;18.328;2023-04-25T10:16:13;14.10;90.60
21282;DHT22;10800;53.096;18.328;2023-04-25T10:21:21;14.30;88.60
21282;DHT22;10800;53.096;18.328;2023-04-25T10:26:27;14.60;88.10
21282;DHT22;10800;53.096;18.328;2023-04-25T10:31:44;14.60;87.10
21282;DHT22;10800;53.096;18.328;2023-04-25T10:36:43;14.60;86.00
21282;DHT22;10800;53.096;18.328;2023-04-25T10:41:57;14.60;88.60
21282;DHT22;10800;53.096;18.328;2023-04-25T10:47:03;14.30;88.00
21282;DHT22;10800;53.096;18.328;2023-04-25T10:52:26;14.20;88.20
21282;DHT22;10800;53.096;18.328;2023-04-25T10:57:45;14.30;87.60
21282;DHT22;10800;53.096;18.328;2023-04-25T11:02:57;14.40;91.20
21282;DHT22;10800;53.096;18.328;2023-04-25T11:08:01;14.30;89.60
21282;DHT22;10800;53.096;18.328;2023-04-25T11:13:09;14.30;89.20
21282;DHT22;10800;53.096;18.328;2023-04-25T11:18:19;14.40;89.90
21282;DHT22;10800;53.096;18.328;2023-04-25T11:23:25;14.20;90.00
21282;DHT22;10800;53.096;18.328;2023-04-25T11:28:32;14.30;90.90
21282;DHT22;10800;53.096;18.328;2023-04-25T11:33:39;14.20;90.80
21282;DHT22;10800;53.096;18.328;2023-04-25T11:38:57;14.10;89.40
21282;DHT22;10800;53.096;18.328;2023-04-25T11:44:03;14.30;90.70
21282;DHT22;10800;53.096;18.328;2023-04-25T11:49:09;14.40;90.20
21282;DHT22;10800;53.096;18.328;2023-04-25T11:54:15;14.40;90.10
21282;DHT22;10800;53.096;18.328;2023-04-25T11:59:23;14.30;87.60
21282;DHT22;10800;53.096;18.328;2023-04-25T12:04:30;14.30;89.60
21282;DHT22;10800;53.096;18.328;2023-04-25T12:09:37;14.40;90.00
21282;DHT22;10800;53.096;18.328;2023-04-25T12:14:47;14.20;90.00
21282;DHT22;10800;53.096;18.328;2023-04-25T12:20:12;14.00;90.80
21282;DHT22;10800;53.096;18.328;2023-04-25T12:31:04;13.60;91.20
21282;DHT22;10800;53.096;18.328;2023-04-25T12:36:10;13.60;91.00
21282;DHT22;10800;53.096;18.328;2023-04-25T12:41:17;13.30;90.00
21282;DHT22;10800;53.096;18.328;2023-04-25T12:46:26;13.30;90.00
21282;DHT22;10800;53.096;18.328;2023-04-25T12:51:32;13.40;91.20
21282;DHT22;10800;53.096;18.328;2023-04-25T12:56:37;13.50;91.20
21282;DHT22;10800;53.096;18.328;2023-04-25T13:01:43;13.80;91.50
21282;DHT22;10800;53.096;18.328;2023-04-25T13:06:49;14.00;90.80
21282;DHT22;10800;53.096;18.328;2023-04-25T13:11:56;14.20;90.60
21282;DHT22;10800;53.096;18.328;2023-04-25T13:17:03;14.50;90.80
21282;DHT22;10800;53.096;18.328;2023-04-25T13:22:09;14.60;88.20
21282;DHT22;10800;53.096;18.328;2023-04-25T13:27:16;14.90;86.40
21282;DHT22;10800;53.096;18.328;2023-04-25T13:32:21;15.00;82.30
21282;DHT22;10800;53.096;18.328;2023-04-25T13:37:27;15.30;84.00
21282;DHT22;10800;53.096;18.328;2023-04-25T13:42:34;15.30;83.40
21282;DHT22;10800;53.096;18.328;2023-04-25T13:47:39;15.10;84.80
21282;DHT22;10800;53.096;18.328;2023-04-25T13:52:44;14.70;84.60
21282;DHT22;10800;53.096;18.328;2023-04-25T13:57:50;14.30;84.00
21282;DHT22;10800;53.096;18.328;2023-04-25T14:02:55;14.30;86.50
21282;DHT22;10800;53.096;18.328;2023-04-25T14:13:21;14.10;88.60
21282;DHT22;10800;53.096;18.328;2023-04-25T14:18:27;13.80;89.70
21282;DHT22;10800;53.096;18.328;2023-04-25T14:23:32;13.70;88.20
21282;DHT22;10800;53.096;18.328;2023-04-25T14:28:41;13.70;88.20
21282;DHT22;10800;53.096;18.328;2023-04-25T14:33:57;13.80;87.60
21282;DHT22;10800;53.096;18.328;2023-04-25T14:39:04;13.90;88.40
21282;DHT22;10800;53.096;18.328;2023-04-25T14:44:13;14.00;89.00
21282;DHT22;10800;53.096;18.328;2023-04-25T14:49:19;14.10;90.00
21282;DHT22;10800;53.096;18.328;2023-04-25T14:54:24;14.40;90.80
21282;DHT22;10800;53.096;18.328;2023-04-25T14:59:30;14.60;89.90
21282;DHT22;10800;53.096;18.328;2023-04-25T15:04:36;14.60;88.40
21282;DHT22;10800;53.096;18.328;2023-04-25T15:09:44;13.80;87.60
21282;DHT22;10800;53.096;18.328;2023-04-25T15:14:56;13.10;88.30
21282;DHT22;10800;53.096;18.328;2023-04-25T15:20:18;12.50;90.50
21282;DHT22;10800;53.096;18.328;2023-04-25T15:26:08;12.10;92.20
21282;DHT22;10800;53.096;18.328;2023-04-25T15:31:32;11.90;93.40
21282;DHT22;10800;53.096;18.328;2023-04-25T15:36:49;11.60;94.20
21282;DHT22;10800;53.096;18.328;2023-04-25T15:42:04;11.40;97.30
21282;DHT22;10800;53.096;18.328;2023-04-25T15:47:26;11.00;99.90
21282;DHT22;10800;53.096;18.328;2023-04-25T15:52:42;11.10;99.90
21282;DHT22;10800;53.096;18.328;2023-04-25T15:58:13;11.10;99.90
21282;DHT22;10800;53.096;18.328;2023-04-25T16:03:41;10.90;99.90
21282;DHT22;10800;53.096;18.328;2023-04-25T16:08:53;11.10;99.90
21282;DHT22;10800;53.096;18.328;2023-04-25T16:14:08;11.20;99.90
21282;DHT22;10800;53.096;18.328;2023-04-25T16:19:45;11.30;99.90
21282;DHT22;10800;53.096;18.328;2023-04-25T16:25:03;11.30;99.90
21282;DHT22;10800;53.096;18.328;2023-04-25T16:30:25;11.40;99.90
21282;DHT22;10800;53.096;18.328;2023-04-25T16:35:30;11.30;99.90
21282;DHT22;10800;53.096;18.328;2023-04-25T16:40:43;11.30;99.90
21282;DHT22;10800;53.096;18.328;2023-04-25T16:45:53;11.20;99.90
21282;DHT22;10800;53.096;18.328;2023-04-25T16:51:09;11.20;99.90
21282;DHT22;10800;53.096;18.328;2023-04-25T16:56:18;11.10;99.90
21282;DHT22;10800;53.096;18.328;2023-04-25T17:01:40;11.10;99.90
21282;DHT22;10800;53.096;18.328;2023-04-25T17:06:59;11.00;99.90
21282;DHT22;10800;53.096;18.328;2023-04-25T17:12:35;10.90;99.90
21282;DHT22;10800;53.096;18.328;2023-04-25T17:17:52;10.80;99.90
21282;DHT22;10800;53.096;18.328;2023-04-25T17:23:53;10.70;99.90
21282;DHT22;10800;53.096;18.328;2023-04-25T17:29:51;10.70;99.90
21282;DHT22;10800;53.096;18.328;2023-04-25T17:35:55;10.60;99.90
21282;DHT22;10800;53.096;18.328;2023-04-25T17:41:25;10.60;99.90
21282;DHT22;10800;53.096;18.328;2023-04-25T17:46:52;10.60;99.90
21282;DHT22;10800;53.096;18.328;2023-04-25T17:52:28;10.50;99.90
21282;DHT22;10800;53.096;18.328;2023-04-25T18:21:47;10.20;99.90
21282;DHT22;10800;53.096;18.328;2023-04-25T19:03:02;9.50;99.90
21282;DHT22;10800;53.096;18.328;2023-04-25T19:08:37;9.50;99.90
21282;DHT22;10800;53.096;18.328;2023-04-25T19:20:43;9.50;99.90
21282;DHT22;10800;53.096;18.328;2023-04-25T19:38:17;9.40;99.90
21282;DHT22;10800;53.096;18.328;2023-04-25T19:44:18;9.40;99.90
21282;DHT22;10800;53.096;18.328;2023-04-25T19:49:45;9.30;99.90
21282;DHT22;10800;53.096;18.328;2023-04-25T20:02:00;9.10;99.90
21282;DHT22;10800;53.096;18.328;2023-04-25T20:07:48;9.00;99.90
21282;DHT22;10800;53.096;18.328;2023-04-25T20:24:35;8.70;99.90
21282;DHT22;10800;53.096;18.328;2023-04-25T20:30:19;8.60;99.90
21282;DHT22;10800;53.096;18.328;2023-04-25T20:42:01;8.30;99.90
21282;DHT22;10800;53.096;18.328;2023-04-25T20:47:59;8.20;99.90
21282;DHT22;10800;53.096;18.328;2023-04-25T20:53:38;8.10;99.90
21282;DHT22;10800;53.096;18.328;2023-04-25T21:05:28;7.80;99.90
21282;DHT22;10800;53.096;18.328;2023-04-25T21:11:18;7.70;99.90
21282;DHT22;10800;53.096;18.328;2023-04-25T21:22:41;7.50;99.90
21282;DHT22;10800;53.096;18.328;2023-04-25T21:39:26;7.20;99.90
21282;DHT22;10800;53.096;18.328;2023-04-25T21:45:29;7.10;99.90
21282;DHT22;10800;53.096;18.328;2023-04-25T21:56:44;6.80;99.90
21282;DHT22;10800;53.096;18.328;2023-04-25T22:08:25;6.60;99.90
21282;DHT22;10800;53.096;18.328;2023-04-25T22:20:22;6.10;99.90
21282;DHT22;10800;53.096;18.328;2023-04-25T22:32:24;5.80;99.90
21282;DHT22;10800;53.096;18.328;2023-04-25T22:38:05;5.60;99.90
21282;DHT22;10800;53.096;18.328;2023-04-25T22:49:58;5.50;99.90
21282;DHT22;10800;53.096;18.328;2023-04-25T22:55:35;5.50;99.90
21282;DHT22;10800;53.096;18.328;2023-04-25T23:01:29;5.50;99.90
21282;DHT22;10800;53.096;18.328;2023-04-25T23:13:20;5.50;99.90
21282;DHT22;10800;53.096;18.328;2023-04-25T23:18:44;5.50;99.90
21282;DHT22;10800;53.096;18.328;2023-04-25T23:30:15;5.70;99.90
21282;DHT22;10800;53.096;18.328;2023-04-25T23:47:37;5.80;99.90
21282;DHT22;10800;53.096;18.328;2023-04-25T23:53:37;5.80;99.90
